Time,TemperatureF,DewpointF,PressureIn,WindDirection,WindDirectionDegrees,WindSpeedMPH,WindSpeedGustMPH,Humidity,HourlyPrecipIn,Conditions,Clouds,dailyrainin,SoftwareType,DateUTC
2013-10-12 00:01:00,50.5,47.4,30.19,NNE,30,3.5,0.0,89,0.00,FEW,,0.00,WeatherDisplay:10.37,2013-10-12 04:01:00,
2013-10-12 00:02:00,50.5,47.4,30.19,NNE,30,3.5,3.5,89,0.00,FEW,,0.00,WeatherDisplay:10.37,2013-10-12 04:02:00,
2013-10-12 00:04:00,50.4,47.2,30.19,NNE,30,3.5,3.5,89,0.00,FEW,,0.00,WeatherDisplay:10.37,2013-10-12 04:04:00,
2013-10-12 00:09:00,50.2,47.1,30.19,NNE,30,3.5,3.5,89,0.00,FEW,,0.00,WeatherDisplay:10.37,2013-10-12 04:09:00,
2013-10-12 00:14:00,50.2,47.1,30.16,NNE,30,3.5,3.5,89,0.00,FEW,,0.00,WeatherDisplay:10.37,2013-10-12 04:14:00,
2013-10-12 00:19:00,50.2,47.1,30.16,NNE,30,3.5,3.5,89,0.00,FEW,,0.00,WeatherDisplay:10.37,2013-10-12 04:19:00,
2013-10-12 00:24:00,50.2,47.1,30.16,NNE,30,3.5,3.5,89,0.00,FEW,,0.00,WeatherDisplay:10.37,2013-10-12 04:24:00,
2013-10-12 00:29:00,50.0,46.9,30.16,NNE,30,3.5,3.5,89,0.00,FEW,,0.00,WeatherDisplay:10.37,2013-10-12 04:29:00,
2013-10-12 00:34:00,49.8,46.7,30.16,NNE,30,3.5,3.5,89,0.00,FEW,,0.00,WeatherDisplay:10.37,2013-10-12 04:34:00,
2013-10-12 00:39:00,49.5,46.4,30.16,NNE,30,3.5,3.5,89,0.00,FEW,,0.00,WeatherDisplay:10.37,2013-10-12 04:39:00,
2013-10-12 00:44:00,49.5,46.4,30.19,NNE,30,3.5,3.5,89,0.00,FEW,,0.00,WeatherDisplay:10.37,2013-10-12 04:44:00,
2013-10-12 00:49:00,49.3,46.2,30.19,NNE,30,3.5,3.5,89,0.00,FEW,,0.00,WeatherDisplay:10.37,2013-10-12 04:49:00,
2013-10-12 00:54:00,49.1,46.0,30.19,NNE,30,3.5,3.5,89,0.00,FEW,,0.00,WeatherDisplay:10.37,2013-10-12 04:54:00,
2013-10-12 00:59:00,49.1,46.0,30.19,NNE,30,3.5,3.5,89,0.00,FEW,,0.00,WeatherDisplay:10.37,2013-10-12 04:59:00,
2013-10-12 01:04:00,48.9,45.5,30.19,NNE,30,0.0,0.0,88,0.00,FEW,,0.00,WeatherDisplay:10.37,2013-10-12 05:04:00,
2013-10-12 01:09:00,48.9,45.5,30.19,NNE,30,0.0,0.0,88,0.00,FEW,,0.00,WeatherDisplay:10.37,2013-10-12 05:09:00,
2013-10-12 01:14:00,48.9,45.5,30.19,NNE,30,0.0,0.0,88,0.00,FEW,,0.00,WeatherDisplay:10.37,2013-10-12 05:14:00,
2013-10-12 01:19:00,48.7,45.3,30.19,NNE,30,0.0,0.0,88,0.00,FEW,,0.00,WeatherDisplay:10.37,2013-10-12 05:19:00,
2013-10-12 01:24:00,48.7,45.3,30.19,NNE,30,0.0,0.0,88,0.00,FEW,,0.00,WeatherDisplay:10.37,2013-10-12 05:24:00,
2013-10-12 01:29:00,48.7,45.3,30.19,NNE,30,0.0,0.0,88,0.00,FEW,,0.00,WeatherDisplay:10.37,2013-10-12 05:29:00,
2013-10-12 01:34:00,48.6,45.2,30.19,NNE,30,0.0,0.0,88,0.00,FEW,,0.00,WeatherDisplay:10.37,2013-10-12 05:34:00,
2013-10-12 01:39:00,48.2,44.8,30.19,NNE,30,0.0,0.0,88,0.00,FEW,,0.00,WeatherDisplay:10.37,2013-10-12 05:39:00,
2013-10-12 01:44:00,48.2,44.8,30.19,NNE,30,0.0,0.0,88,0.00,FEW,,0.00,WeatherDisplay:10.37,2013-10-12 05:44:00,
2013-10-12 01:49:00,48.4,45.0,30.19,NNE,30,0.0,0.0,88,0.00,FEW,,0.00,WeatherDisplay:10.37,2013-10-12 05:49:00,
2013-10-12 01:54:00,48.4,45.0,30.19,NNE,30,0.0,0.0,88,0.00,FEW,,0.00,WeatherDisplay:10.37,2013-10-12 05:54:00,
2013-10-12 01:59:00,48.2,44.8,30.19,NNE,30,0.0,0.0,88,0.00,FEW,,0.00,WeatherDisplay:10.37,2013-10-12 05:59:00,
2013-10-12 02:04:00,48.0,44.6,30.19,NNE,30,0.0,0.0,88,0.00,CLR,,0.00,WeatherDisplay:10.37,2013-10-12 06:04:00,
2013-10-12 02:09:00,48.0,44.6,30.19,NNE,30,0.0,0.0,88,0.00,CLR,,0.00,WeatherDisplay:10.37,2013-10-12 06:09:00,
2013-10-12 02:14:00,47.8,44.5,30.19,NNE,30,0.0,0.0,88,0.00,CLR,,0.00,WeatherDisplay:10.37,2013-10-12 06:14:00,
2013-10-12 02:19:00,47.7,44.3,30.19,NNE,30,0.0,0.0,88,0.00,CLR,,0.00,WeatherDisplay:10.37,2013-10-12 06:19:00,
2013-10-12 02:24:00,47.7,44.3,30.19,NNE,30,0.0,0.0,88,0.00,CLR,,0.00,WeatherDisplay:10.37,2013-10-12 06:24:00,
2013-10-12 02:29:00,47.7,44.3,30.19,NNE,30,0.0,0.0,88,0.00,CLR,,0.00,WeatherDisplay:10.37,2013-10-12 06:29:00,
2013-10-12 02:34:00,47.5,44.1,30.19,NNE,30,0.0,0.0,88,0.00,CLR,,0.00,WeatherDisplay:10.37,2013-10-12 06:34:00,
2013-10-12 02:39:00,47.3,43.9,30.19,NNE,30,0.0,0.0,88,0.00,CLR,,0.00,WeatherDisplay:10.37,2013-10-12 06:39:00,
2013-10-12 02:44:00,47.3,43.9,30.19,NNE,30,0.0,0.0,88,0.00,CLR,,0.00,WeatherDisplay:10.37,2013-10-12 06:44:00,
2013-10-12 02:49:00,47.3,43.9,30.19,NNE,30,0.0,0.0,88,0.00,CLR,,0.00,WeatherDisplay:10.37,2013-10-12 06:49:00,
2013-10-12 02:54:00,47.3,43.9,30.19,NNE,30,0.0,0.0,88,0.00,CLR,,0.00,WeatherDisplay:10.37,2013-10-12 06:54:00,
2013-10-12 02:59:00,47.1,43.7,30.19,NNE,30,0.0,0.0,88,0.00,CLR,,0.00,WeatherDisplay:10.37,2013-10-12 06:59:00,
2013-10-12 03:04:00,46.9,43.6,30.19,NNE,30,0.0,0.0,88,0.00,CLR,,0.00,WeatherDisplay:10.37,2013-10-12 07:04:00,
2013-10-12 03:09:00,46.8,43.4,30.19,NNE,30,0.0,0.0,88,0.00,CLR,,0.00,WeatherDisplay:10.37,2013-10-12 07:09:00,
2013-10-12 03:14:00,46.9,43.6,30.19,NNE,30,0.0,0.0,88,0.00,CLR,,0.00,WeatherDisplay:10.37,2013-10-12 07:14:00,
2013-10-12 03:19:00,46.8,43.4,30.19,NNE,30,0.0,0.0,88,0.00,CLR,,0.00,WeatherDisplay:10.37,2013-10-12 07:19:00,
2013-10-12 03:24:00,46.6,43.2,30.19,NNE,30,0.0,0.0,88,0.00,CLR,,0.00,WeatherDisplay:10.37,2013-10-12 07:24:00,
2013-10-12 03:30:00,46.4,43.0,30.19,NNE,30,0.0,0.0,88,0.00,CLR,,0.00,WeatherDisplay:10.37,2013-10-12 07:30:00,
2013-10-12 03:35:00,46.4,43.0,30.19,NNE,30,0.0,0.0,88,0.00,CLR,,0.00,WeatherDisplay:10.37,2013-10-12 07:35:00,
2013-10-12 03:40:00,46.4,43.0,30.19,NNE,30,0.0,0.0,88,0.00,CLR,,0.00,WeatherDisplay:10.37,2013-10-12 07:40:00,
2013-10-12 03:45:00,46.2,42.9,30.19,NNE,30,0.0,0.0,88,0.00,CLR,,0.00,WeatherDisplay:10.37,2013-10-12 07:45:00,
2013-10-12 03:50:00,46.4,43.0,30.19,NNE,30,0.0,0.0,88,0.00,CLR,,0.00,WeatherDisplay:10.37,2013-10-12 07:50:00,
2013-10-12 03:55:00,46.2,42.9,30.19,NNE,30,0.0,0.0,88,0.00,CLR,,0.00,WeatherDisplay:10.37,2013-10-12 07:55:00,
2013-10-12 04:00:00,46.2,42.9,30.22,NNE,30,0.0,0.0,88,0.00,CLR,,0.00,WeatherDisplay:10.37,2013-10-12 08:00:00,
2013-10-12 04:05:00,46.0,42.7,30.22,NNE,30,0.0,0.0,88,0.00,CLR,,0.00,WeatherDisplay:10.37,2013-10-12 08:05:00,
2013-10-12 04:10:00,46.0,42.7,30.22,NNE,30,0.0,0.0,88,0.00,CLR,,0.00,WeatherDisplay:10.37,2013-10-12 08:10:00,
2013-10-12 04:15:00,46.0,42.7,30.22,NNE,30,0.0,0.0,88,0.00,CLR,,0.00,WeatherDisplay:10.37,2013-10-12 08:15:00,
2013-10-12 04:20:00,46.0,43.8,30.22,NNE,30,0.0,0.0,92,0.00,CLR,,0.00,WeatherDisplay:10.37,2013-10-12 08:20:00,
2013-10-12 04:25:00,46.0,43.8,30.22,NNE,30,0.0,0.0,92,0.00,CLR,,0.00,WeatherDisplay:10.37,2013-10-12 08:25:00,
2013-10-12 04:30:00,45.9,43.7,30.22,NNE,30,0.0,0.0,92,0.00,CLR,,0.00,WeatherDisplay:10.37,2013-10-12 08:30:00,
2013-10-12 04:35:00,45.9,43.7,30.22,NNE,30,0.0,0.0,92,0.00,CLR,,0.00,WeatherDisplay:10.37,2013-10-12 08:35:00,
2013-10-12 04:40:00,45.9,43.7,30.22,NNE,30,0.0,0.0,92,0.00,CLR,,0.00,WeatherDisplay:10.37,2013-10-12 08:40:00,
2013-10-12 04:45:00,45.9,43.7,30.22,NNE,30,0.0,0.0,92,0.00,CLR,,0.00,WeatherDisplay:10.37,2013-10-12 08:45:00,
2013-10-12 04:50:00,46.0,43.8,30.22,NNE,30,0.0,0.0,92,0.00,CLR,,0.00,WeatherDisplay:10.37,2013-10-12 08:50:00,
2013-10-12 04:55:00,45.7,43.5,30.22,NNE,30,0.0,0.0,92,0.00,CLR,,0.00,WeatherDisplay:10.37,2013-10-12 08:55:00,
2013-10-12 05:00:00,45.7,43.5,30.22,NNE,30,0.0,0.0,92,0.00,CLR,,0.00,WeatherDisplay:10.37,2013-10-12 09:00:00,
2013-10-12 05:05:00,45.5,43.3,30.22,NNE,30,0.0,0.0,92,0.00,CLR,,0.00,WeatherDisplay:10.37,2013-10-12 09:05:00,
2013-10-12 05:10:00,45.5,43.3,30.22,NNE,30,0.0,0.0,92,0.00,CLR,,0.00,WeatherDisplay:10.37,2013-10-12 09:10:00,
2013-10-12 05:15:00,45.5,43.3,30.22,NNE,30,0.0,0.0,92,0.00,CLR,,0.00,WeatherDisplay:10.37,2013-10-12 09:15:00,
2013-10-12 05:20:00,45.5,42.2,30.22,NNE,30,0.0,0.0,88,0.00,CLR,,0.00,WeatherDisplay:10.37,2013-10-12 09:20:00,
2013-10-12 05:25:00,45.5,42.2,30.22,NNE,30,0.0,0.0,88,0.00,CLR,,0.00,WeatherDisplay:10.37,2013-10-12 09:25:00,
2013-10-12 05:30:00,45.3,42.0,30.22,NNE,30,0.0,0.0,88,0.00,CLR,,0.00,WeatherDisplay:10.37,2013-10-12 09:30:00,
2013-10-12 05:35:00,45.1,41.8,30.22,NNE,30,0.0,0.0,88,0.00,CLR,,0.00,WeatherDisplay:10.37,2013-10-12 09:35:00,
2013-10-12 05:40:00,45.1,41.8,30.22,NNE,30,0.0,0.0,88,0.00,CLR,,0.00,WeatherDisplay:10.37,2013-10-12 09:40:00,
2013-10-12 05:45:00,45.0,41.6,30.22,NNE,30,0.0,0.0,88,0.00,CLR,,0.00,WeatherDisplay:10.37,2013-10-12 09:45:00,
2013-10-12 05:50:00,44.8,41.4,30.22,NNE,30,0.0,0.0,88,0.00,CLR,,0.00,WeatherDisplay:10.37,2013-10-12 09:50:00,
2013-10-12 05:55:00,44.8,41.4,30.22,NNE,30,0.0,0.0,88,0.00,CLR,,0.00,WeatherDisplay:10.37,2013-10-12 09:55:00,
2013-10-12 06:00:00,44.8,41.4,30.22,NNE,30,0.0,0.0,88,0.00,CLR,,0.00,WeatherDisplay:10.37,2013-10-12 10:00:00,
2013-10-12 06:05:00,44.8,41.4,30.22,NNE,30,0.0,0.0,88,0.00,CLR,,0.00,WeatherDisplay:10.37,2013-10-12 10:05:00,
2013-10-12 06:10:00,44.8,41.4,30.22,NNE,30,0.0,0.0,88,0.00,CLR,,0.00,WeatherDisplay:10.37,2013-10-12 10:10:00,
2013-10-12 06:15:00,44.8,41.4,30.22,NNE,30,0.0,0.0,88,0.00,CLR,,0.00,WeatherDisplay:10.37,2013-10-12 10:15:00,
2013-10-12 06:20:00,44.6,41.3,30.22,NNE,30,0.0,0.0,88,0.00,CLR,,0.00,WeatherDisplay:10.37,2013-10-12 10:20:00,
2013-10-12 06:25:00,44.6,41.3,30.22,NNE,30,0.0,0.0,88,0.00,CLR,,0.00,WeatherDisplay:10.37,2013-10-12 10:25:00,
2013-10-12 06:30:00,44.6,41.3,30.25,NNE,30,0.0,0.0,88,0.00,CLR,,0.00,WeatherDisplay:10.37,2013-10-12 10:30:00,
2013-10-12 06:35:00,44.6,41.3,30.25,NNE,30,0.0,0.0,88,0.00,CLR,,0.00,WeatherDisplay:10.37,2013-10-12 10:35:00,
2013-10-12 06:40:00,44.6,41.3,30.25,NNE,30,0.0,0.0,88,0.00,CLR,,0.00,WeatherDisplay:10.37,2013-10-12 10:40:00,
2013-10-12 06:45:00,44.4,41.1,30.25,NNE,30,0.0,0.0,88,0.00,CLR,,0.00,WeatherDisplay:10.37,2013-10-12 10:45:00,
2013-10-12 06:50:00,44.2,40.9,30.25,NNE,30,0.0,0.0,88,0.00,CLR,,0.00,WeatherDisplay:10.37,2013-10-12 10:50:00,
2013-10-12 06:55:00,44.2,40.9,30.25,NNE,30,0.0,0.0,88,0.00,CLR,,0.00,WeatherDisplay:10.37,2013-10-12 10:55:00,
2013-10-12 07:00:00,44.2,40.9,30.25,NNE,30,0.0,0.0,88,0.00,CLR,,0.00,WeatherDisplay:10.37,2013-10-12 11:00:00,
2013-10-12 07:05:00,44.2,41.8,30.25,NNE,30,0.0,0.0,91,0.00,FEW,,0.00,WeatherDisplay:10.37,2013-10-12 11:05:00,
2013-10-12 07:10:00,44.2,41.8,30.25,NNE,30,0.0,0.0,91,0.00,FEW,,0.00,WeatherDisplay:10.37,2013-10-12 11:10:00,
2013-10-12 07:15:00,44.1,41.6,30.25,NNE,30,0.0,0.0,91,0.00,FEW,,0.00,WeatherDisplay:10.37,2013-10-12 11:15:00,
2013-10-12 07:20:00,44.2,41.8,30.25,NNE,30,0.0,0.0,91,0.00,FEW,,0.00,WeatherDisplay:10.37,2013-10-12 11:20:00,
2013-10-12 07:25:00,44.1,41.6,30.25,NNE,30,0.0,0.0,91,0.00,FEW,,0.00,WeatherDisplay:10.37,2013-10-12 11:25:00,
2013-10-12 07:30:00,44.1,41.6,30.25,NNE,30,0.0,0.0,91,0.00,FEW,,0.00,WeatherDisplay:10.37,2013-10-12 11:30:00,
2013-10-12 07:35:00,44.2,41.8,30.25,NNE,30,0.0,0.0,91,0.00,FEW,,0.00,WeatherDisplay:10.37,2013-10-12 11:35:00,
2013-10-12 07:40:00,44.4,42.0,30.25,NNE,30,0.0,0.0,91,0.00,FEW,,0.00,WeatherDisplay:10.37,2013-10-12 11:40:00,
2013-10-12 07:45:00,44.8,42.3,30.25,NNE,30,0.0,0.0,91,0.00,FEW,,0.00,WeatherDisplay:10.37,2013-10-12 11:45:00,
2013-10-12 07:50:00,44.6,42.1,30.25,NNE,30,0.0,0.0,91,0.00,FEW,,0.00,WeatherDisplay:10.37,2013-10-12 11:50:00,
2013-10-12 07:55:00,44.8,42.3,30.25,NNE,30,0.0,0.0,91,0.00,FEW,,0.00,WeatherDisplay:10.37,2013-10-12 11:55:00,
2013-10-12 08:00:00,45.1,42.7,30.28,NNE,30,0.0,0.0,91,0.00,FEW,,0.00,WeatherDisplay:10.37,2013-10-12 12:00:00,
2013-10-12 08:05:00,45.3,42.8,30.28,NNE,30,0.0,0.0,91,0.00,FEW,,0.00,WeatherDisplay:10.37,2013-10-12 12:05:00,
2013-10-12 08:10:00,45.9,43.4,30.28,NNE,30,0.0,0.0,91,0.00,FEW,,0.00,WeatherDisplay:10.37,2013-10-12 12:10:00,
2013-10-12 08:15:00,46.2,43.7,30.28,NNE,30,0.0,0.0,91,0.00,FEW,,0.00,WeatherDisplay:10.37,2013-10-12 12:15:00,
2013-10-12 08:20:00,46.8,43.4,30.28,NNE,30,0.0,0.0,88,0.00,FEW,,0.00,WeatherDisplay:10.37,2013-10-12 12:20:00,
2013-10-12 08:25:00,47.1,43.7,30.28,NNE,30,0.0,0.0,88,0.00,FEW,,0.00,WeatherDisplay:10.37,2013-10-12 12:25:00,
2013-10-12 08:30:00,47.5,44.1,30.28,NNE,30,0.0,0.0,88,0.00,FEW,,0.00,WeatherDisplay:10.37,2013-10-12 12:30:00,
2013-10-12 08:35:00,47.8,44.5,30.28,NNE,30,0.0,0.0,88,0.00,FEW,,0.00,WeatherDisplay:10.37,2013-10-12 12:35:00,
2013-10-12 08:40:00,48.4,45.0,30.28,NNE,30,0.0,0.0,88,0.00,FEW,,0.00,WeatherDisplay:10.37,2013-10-12 12:40:00,
2013-10-12 08:45:00,48.9,45.5,30.28,NNE,30,0.0,0.0,88,0.00,FEW,,0.00,WeatherDisplay:10.37,2013-10-12 12:45:00,
2013-10-12 08:50:00,49.3,45.9,30.28,NNE,30,0.0,0.0,88,0.00,FEW,,0.00,WeatherDisplay:10.37,2013-10-12 12:50:00,
2013-10-12 08:55:00,50.0,46.6,30.28,NNE,30,0.0,0.0,88,0.00,FEW,,0.00,WeatherDisplay:10.37,2013-10-12 12:55:00,
2013-10-12 09:00:00,50.4,46.9,30.28,NNE,30,0.0,0.0,88,0.00,FEW,,0.00,WeatherDisplay:10.37,2013-10-12 13:00:00,
2013-10-12 09:05:00,50.9,47.5,30.28,NNE,30,0.0,0.0,88,0.00,FEW,,0.00,WeatherDisplay:10.37,2013-10-12 13:05:00,
2013-10-12 09:10:00,51.3,47.8,30.28,NNE,30,0.0,0.0,88,0.00,FEW,,0.00,WeatherDisplay:10.37,2013-10-12 13:10:00,
2013-10-12 09:15:00,51.8,48.4,30.28,NNE,30,0.0,0.0,88,0.00,FEW,,0.00,WeatherDisplay:10.37,2013-10-12 13:15:00,
2013-10-12 09:20:00,52.2,48.1,30.28,NNW,330,3.5,3.5,86,0.00,CLR,,0.00,WeatherDisplay:10.37,2013-10-12 13:20:00,
2013-10-12 09:25:00,52.9,48.8,30.28,NNW,330,3.5,3.5,86,0.00,CLR,,0.00,WeatherDisplay:10.37,2013-10-12 13:25:00,
2013-10-12 09:30:00,53.2,49.2,30.28,NNW,330,3.5,3.5,86,0.00,CLR,,0.00,WeatherDisplay:10.37,2013-10-12 13:30:00,
2013-10-12 09:35:00,54.0,49.9,30.28,NNW,330,3.5,3.5,86,0.00,CLR,,0.00,WeatherDisplay:10.37,2013-10-12 13:35:00,
2013-10-12 09:40:00,54.3,50.2,30.28,NNW,330,3.5,3.5,86,0.00,CLR,,0.00,WeatherDisplay:10.37,2013-10-12 13:40:00,
2013-10-12 09:45:00,54.9,50.8,30.28,NNW,330,3.5,3.5,86,0.00,CLR,,0.00,WeatherDisplay:10.37,2013-10-12 13:45:00,
2013-10-12 09:50:00,55.4,51.3,30.28,NNW,330,3.5,3.5,86,0.00,CLR,,0.00,WeatherDisplay:10.37,2013-10-12 13:50:00,
2013-10-12 09:55:00,55.9,51.8,30.28,NNW,330,3.5,3.5,86,0.00,CLR,,0.00,WeatherDisplay:10.37,2013-10-12 13:55:00,
2013-10-12 10:00:00,56.7,52.5,30.28,NNW,330,3.5,3.5,86,0.00,CLR,,0.00,WeatherDisplay:10.37,2013-10-12 14:00:00,
2013-10-12 10:05:00,56.8,49.7,30.28,North,350,3.5,3.5,77,0.00,CLR,,0.00,WeatherDisplay:10.37,2013-10-12 14:05:00,
2013-10-12 10:10:00,56.8,49.7,30.28,North,350,3.5,3.5,77,0.00,CLR,,0.00,WeatherDisplay:10.37,2013-10-12 14:10:00,
2013-10-12 10:15:00,57.6,50.4,30.28,North,350,3.5,3.5,77,0.00,CLR,,0.00,WeatherDisplay:10.37,2013-10-12 14:15:00,
2013-10-12 10:20:00,58.1,50.9,30.28,North,350,3.5,3.5,77,0.00,CLR,,0.00,WeatherDisplay:10.37,2013-10-12 14:20:00,
2013-10-12 10:25:00,58.1,50.9,30.28,North,350,3.5,3.5,77,0.00,CLR,,0.00,WeatherDisplay:10.37,2013-10-12 14:25:00,
2013-10-12 10:30:00,58.6,51.4,30.28,North,350,3.5,3.5,77,0.00,CLR,,0.00,WeatherDisplay:10.37,2013-10-12 14:30:00,
2013-10-12 10:35:00,58.8,51.6,30.28,North,350,3.5,3.5,77,0.00,CLR,,0.00,WeatherDisplay:10.37,2013-10-12 14:35:00,
2013-10-12 10:40:00,59.0,51.8,30.28,North,350,3.5,3.5,77,0.00,CLR,,0.00,WeatherDisplay:10.37,2013-10-12 14:40:00,
2013-10-12 10:45:00,59.4,52.1,30.28,North,350,3.5,3.5,77,0.00,CLR,,0.00,WeatherDisplay:10.37,2013-10-12 14:45:00,
2013-10-12 10:50:00,59.7,52.5,30.28,North,350,3.5,3.5,77,0.00,CLR,,0.00,WeatherDisplay:10.37,2013-10-12 14:50:00,
2013-10-12 10:55:00,60.3,53.0,30.28,North,350,3.5,3.5,77,0.00,CLR,,0.00,WeatherDisplay:10.37,2013-10-12 14:55:00,
2013-10-12 11:00:00,60.6,53.4,30.28,North,350,3.5,3.5,77,0.00,CLR,,0.00,WeatherDisplay:10.37,2013-10-12 15:00:00,
2013-10-12 11:05:00,61.2,48.0,30.28,North,350,3.5,3.5,62,0.00,CLR,,0.00,WeatherDisplay:10.37,2013-10-12 15:05:00,
2013-10-12 11:10:00,61.7,48.5,30.28,North,350,3.5,3.5,62,0.00,CLR,,0.00,WeatherDisplay:10.37,2013-10-12 15:10:00,
2013-10-12 11:15:00,61.9,48.7,30.28,North,350,3.5,3.5,62,0.00,CLR,,0.00,WeatherDisplay:10.37,2013-10-12 15:15:00,
2013-10-12 11:20:00,62.2,49.1,30.28,North,350,3.5,3.5,62,0.00,CLR,,0.00,WeatherDisplay:10.37,2013-10-12 15:20:00,
2013-10-12 11:25:00,62.6,49.4,30.28,North,350,3.5,3.5,62,0.00,CLR,,0.00,WeatherDisplay:10.37,2013-10-12 15:25:00,
2013-10-12 11:30:00,63.0,49.7,30.28,North,350,3.5,3.5,62,0.00,CLR,,0.00,WeatherDisplay:10.37,2013-10-12 15:30:00,
2013-10-12 11:35:00,63.0,49.7,30.28,North,350,3.5,3.5,62,0.00,CLR,,0.00,WeatherDisplay:10.37,2013-10-12 15:35:00,
2013-10-12 11:40:00,63.1,49.9,30.28,North,350,3.5,3.5,62,0.00,CLR,,0.00,WeatherDisplay:10.37,2013-10-12 15:40:00,
2013-10-12 11:45:00,63.5,50.2,30.28,North,350,3.5,3.5,62,0.00,CLR,,0.00,WeatherDisplay:10.37,2013-10-12 15:45:00,
2013-10-12 11:50:00,63.5,50.2,30.28,North,350,3.5,3.5,62,0.00,CLR,,0.00,WeatherDisplay:10.37,2013-10-12 15:50:00,
2013-10-12 11:55:00,63.5,50.2,30.28,North,350,3.5,3.5,62,0.00,CLR,,0.00,WeatherDisplay:10.37,2013-10-12 15:55:00,
2013-10-12 12:00:00,63.7,50.4,30.28,North,350,3.5,3.5,62,0.00,CLR,,0.00,WeatherDisplay:10.37,2013-10-12 16:00:00,
2013-10-12 12:05:00,63.9,46.9,30.28,North,350,0.0,0.0,54,0.00,CLR,,0.00,WeatherDisplay:10.37,2013-10-12 16:05:00,
2013-10-12 12:10:00,64.0,47.1,30.28,North,350,0.0,0.0,54,0.00,CLR,,0.00,WeatherDisplay:10.37,2013-10-12 16:10:00,
2013-10-12 12:15:00,64.2,47.2,30.28,North,350,0.0,0.0,54,0.00,CLR,,0.00,WeatherDisplay:10.37,2013-10-12 16:15:00,
2013-10-12 12:20:00,64.4,47.4,30.28,North,350,0.0,0.0,54,0.00,CLR,,0.00,WeatherDisplay:10.37,2013-10-12 16:20:00,
2013-10-12 12:25:00,64.8,47.7,30.28,North,350,0.0,0.0,54,0.00,CLR,,0.00,WeatherDisplay:10.37,2013-10-12 16:25:00,
2013-10-12 12:30:00,64.8,47.7,30.28,North,350,0.0,0.0,54,0.00,CLR,,0.00,WeatherDisplay:10.37,2013-10-12 16:30:00,
2013-10-12 12:35:00,64.9,47.9,30.28,North,350,0.0,0.0,54,0.00,CLR,,0.00,WeatherDisplay:10.37,2013-10-12 16:35:00,
2013-10-12 12:40:00,64.9,47.9,30.28,North,350,0.0,0.0,54,0.00,CLR,,0.00,WeatherDisplay:10.37,2013-10-12 16:40:00,
2013-10-12 12:45:00,65.3,48.2,30.28,North,350,0.0,0.0,54,0.00,CLR,,0.00,WeatherDisplay:10.37,2013-10-12 16:45:00,
2013-10-12 12:50:00,65.5,48.4,30.28,North,350,0.0,0.0,54,0.00,CLR,,0.00,WeatherDisplay:10.37,2013-10-12 16:50:00,
2013-10-12 12:55:00,65.7,48.6,30.28,North,350,0.0,0.0,54,0.00,CLR,,0.00,WeatherDisplay:10.37,2013-10-12 16:55:00,
2013-10-12 13:00:00,65.8,48.7,30.25,North,350,0.0,0.0,54,0.00,CLR,,0.00,WeatherDisplay:10.37,2013-10-12 17:00:00,
2013-10-12 13:05:00,65.8,48.7,30.25,North,350,0.0,0.0,54,0.00,CLR,,0.00,WeatherDisplay:10.37,2013-10-12 17:05:00,
2013-10-12 13:10:00,66.0,48.9,30.25,North,350,0.0,0.0,54,0.00,CLR,,0.00,WeatherDisplay:10.37,2013-10-12 17:10:00,
2013-10-12 13:15:00,66.2,49.1,30.25,North,350,0.0,0.0,54,0.00,CLR,,0.00,WeatherDisplay:10.37,2013-10-12 17:15:00,
2013-10-12 13:20:00,66.4,45.5,30.25,North,350,0.0,0.0,47,0.00,FEW,,0.00,WeatherDisplay:10.37,2013-10-12 17:20:00,
2013-10-12 13:25:00,66.6,45.7,30.25,North,350,0.0,0.0,47,0.00,FEW,,0.00,WeatherDisplay:10.37,2013-10-12 17:25:00,
2013-10-12 13:30:00,66.9,46.0,30.25,North,350,0.0,0.0,47,0.00,FEW,,0.00,WeatherDisplay:10.37,2013-10-12 17:30:00,
2013-10-12 13:35:00,66.9,46.0,30.25,North,350,0.0,0.0,47,0.00,FEW,,0.00,WeatherDisplay:10.37,2013-10-12 17:35:00,
2013-10-12 13:40:00,67.1,46.2,30.25,North,350,0.0,0.0,47,0.00,FEW,,0.00,WeatherDisplay:10.37,2013-10-12 17:40:00,
2013-10-12 13:45:00,67.3,46.4,30.25,North,350,0.0,0.0,47,0.00,FEW,,0.00,WeatherDisplay:10.37,2013-10-12 17:45:00,
2013-10-12 13:50:00,67.5,46.5,30.25,North,350,0.0,0.0,47,0.00,FEW,,0.00,WeatherDisplay:10.37,2013-10-12 17:50:00,
2013-10-12 13:55:00,67.5,46.5,30.25,North,350,0.0,0.0,47,0.00,FEW,,0.00,WeatherDisplay:10.37,2013-10-12 17:55:00,
2013-10-12 14:00:00,67.8,46.8,30.25,North,350,0.0,0.0,47,0.00,FEW,,0.00,WeatherDisplay:10.37,2013-10-12 18:00:00,
2013-10-12 14:05:00,67.8,46.3,30.25,North,350,0.0,0.0,46,0.00,FEW,,0.00,WeatherDisplay:10.37,2013-10-12 18:05:00,
2013-10-12 14:10:00,68.2,46.6,30.25,North,350,0.0,0.0,46,0.00,FEW,,0.00,WeatherDisplay:10.37,2013-10-12 18:10:00,
2013-10-12 14:15:00,68.5,46.9,30.25,North,350,0.0,0.0,46,0.00,FEW,,0.00,WeatherDisplay:10.37,2013-10-12 18:15:00,
2013-10-12 14:20:00,68.7,47.1,30.25,North,350,0.0,0.0,46,0.00,FEW,,0.00,WeatherDisplay:10.37,2013-10-12 18:20:00,
2013-10-12 14:25:00,68.9,47.3,30.25,North,350,0.0,0.0,46,0.00,FEW,,0.00,WeatherDisplay:10.37,2013-10-12 18:25:00,
2013-10-12 14:30:00,69.1,47.4,30.25,North,350,0.0,0.0,46,0.00,FEW,,0.00,WeatherDisplay:10.37,2013-10-12 18:30:00,
2013-10-12 14:35:00,69.4,47.8,30.25,North,350,0.0,0.0,46,0.00,FEW,,0.00,WeatherDisplay:10.37,2013-10-12 18:35:00,
2013-10-12 14:40:00,69.6,47.9,30.25,North,350,0.0,0.0,46,0.00,FEW,,0.00,WeatherDisplay:10.37,2013-10-12 18:40:00,
2013-10-12 14:45:00,69.6,47.9,30.25,North,350,0.0,0.0,46,0.00,FEW,,0.00,WeatherDisplay:10.37,2013-10-12 18:45:00,
2013-10-12 14:50:00,69.6,47.9,30.25,North,350,0.0,0.0,46,0.00,FEW,,0.00,WeatherDisplay:10.37,2013-10-12 18:50:00,
2013-10-12 14:55:00,69.6,47.9,30.25,North,350,0.0,0.0,46,0.00,FEW,,0.00,WeatherDisplay:10.37,2013-10-12 18:55:00,
2013-10-12 15:00:00,69.6,47.9,30.25,North,350,0.0,0.0,46,0.00,FEW,,0.00,WeatherDisplay:10.37,2013-10-12 19:00:00,
2013-10-12 15:05:00,69.6,47.9,30.25,North,350,0.0,0.0,46,0.00,FEW,,0.00,WeatherDisplay:10.37,2013-10-12 19:05:00,
2013-10-12 15:10:00,69.6,47.9,30.25,North,350,0.0,0.0,46,0.00,FEW,,0.00,WeatherDisplay:10.37,2013-10-12 19:10:00,
2013-10-12 15:15:00,69.6,47.9,30.25,North,350,0.0,0.0,46,0.00,FEW,,0.00,WeatherDisplay:10.37,2013-10-12 19:15:00,
2013-10-12 15:20:00,69.4,46.6,30.25,SE,130,9.2,20.7,44,0.00,FEW,,0.00,WeatherDisplay:10.37,2013-10-12 19:20:00,
2013-10-12 15:25:00,69.4,46.6,30.25,SE,130,9.2,20.7,44,0.00,FEW,,0.00,WeatherDisplay:10.37,2013-10-12 19:25:00,
2013-10-12 15:30:00,69.3,46.4,30.25,SE,130,9.2,20.7,44,0.00,FEW,,0.00,WeatherDisplay:10.37,2013-10-12 19:30:00,
2013-10-12 15:35:00,69.1,46.2,30.25,SE,130,9.2,20.7,44,0.00,FEW,,0.00,WeatherDisplay:10.37,2013-10-12 19:35:00,
2013-10-12 15:40:00,69.1,46.2,30.25,SE,130,9.2,20.7,44,0.00,FEW,,0.00,WeatherDisplay:10.37,2013-10-12 19:40:00,
2013-10-12 15:45:00,68.9,46.1,30.25,SE,130,9.2,20.7,44,0.00,FEW,,0.00,WeatherDisplay:10.37,2013-10-12 19:45:00,
2013-10-12 15:50:00,68.5,45.8,30.25,SE,130,9.2,20.7,44,0.00,FEW,,0.00,WeatherDisplay:10.37,2013-10-12 19:50:00,
2013-10-12 15:55:00,68.4,45.6,30.25,SE,130,9.2,20.7,44,0.00,FEW,,0.00,WeatherDisplay:10.37,2013-10-12 19:55:00,
2013-10-12 16:00:00,68.2,45.4,30.25,SE,130,9.2,20.7,44,0.00,FEW,,0.00,WeatherDisplay:10.37,2013-10-12 20:00:00,
2013-10-12 16:05:00,68.0,48.1,30.25,SE,140,11.5,19.6,49,0.00,FEW,,0.00,WeatherDisplay:10.37,2013-10-12 20:05:00,
2013-10-12 16:10:00,67.6,47.8,30.25,SE,140,11.5,19.6,49,0.00,FEW,,0.00,WeatherDisplay:10.37,2013-10-12 20:10:00,
2013-10-12 16:15:00,67.5,47.6,30.28,SE,140,11.5,19.6,49,0.00,FEW,,0.00,WeatherDisplay:10.37,2013-10-12 20:15:00,
2013-10-12 16:20:00,67.3,47.5,30.28,SE,140,11.5,19.6,49,0.00,FEW,,0.00,WeatherDisplay:10.37,2013-10-12 20:20:00,
2013-10-12 16:25:00,67.1,47.3,30.28,SE,140,11.5,19.6,49,0.00,FEW,,0.00,WeatherDisplay:10.37,2013-10-12 20:25:00,
2013-10-12 16:30:00,66.9,47.1,30.28,SE,140,11.5,19.6,49,0.00,FEW,,0.00,WeatherDisplay:10.37,2013-10-12 20:30:00,
2013-10-12 16:35:00,66.7,47.0,30.28,SE,140,11.5,19.6,49,0.00,FEW,,0.00,WeatherDisplay:10.37,2013-10-12 20:35:00,
2013-10-12 16:40:00,66.6,46.8,30.28,SE,140,11.5,19.6,49,0.00,FEW,,0.00,WeatherDisplay:10.37,2013-10-12 20:40:00,
2013-10-12 16:45:00,66.2,46.5,30.28,SE,140,11.5,19.6,49,0.00,FEW,,0.00,WeatherDisplay:10.37,2013-10-12 20:45:00,
2013-10-12 16:50:00,66.0,46.3,30.28,SE,140,11.5,19.6,49,0.00,FEW,,0.00,WeatherDisplay:10.37,2013-10-12 20:50:00,
2013-10-12 16:55:00,65.8,46.1,30.28,SE,140,11.5,19.6,49,0.00,FEW,,0.00,WeatherDisplay:10.37,2013-10-12 20:55:00,
2013-10-12 17:00:00,65.7,46.0,30.28,SE,140,11.5,19.6,49,0.00,FEW,,0.00,WeatherDisplay:10.37,2013-10-12 21:00:00,
2013-10-12 17:05:00,65.5,49.4,30.28,SSE,160,9.2,20.7,56,0.00,FEW,,0.00,WeatherDisplay:10.37,2013-10-12 21:05:00,
2013-10-12 17:10:00,65.1,49.0,30.28,SSE,160,9.2,20.7,56,0.00,FEW,,0.00,WeatherDisplay:10.37,2013-10-12 21:10:00,
2013-10-12 17:15:00,64.8,48.7,30.28,SSE,160,9.2,20.7,56,0.00,FEW,,0.00,WeatherDisplay:10.37,2013-10-12 21:15:00,
2013-10-12 17:20:00,64.6,48.5,30.28,SSE,160,9.2,20.7,56,0.00,FEW,,0.00,WeatherDisplay:10.37,2013-10-12 21:20:00,
2013-10-12 17:25:00,64.4,48.4,30.28,SSE,160,9.2,20.7,56,0.00,FEW,,0.00,WeatherDisplay:10.37,2013-10-12 21:25:00,
2013-10-12 17:30:00,64.0,48.0,30.31,SSE,160,9.2,20.7,56,0.00,FEW,,0.00,WeatherDisplay:10.37,2013-10-12 21:30:00,
2013-10-12 17:35:00,63.7,47.7,30.31,SSE,160,9.2,20.7,56,0.00,FEW,,0.00,WeatherDisplay:10.37,2013-10-12 21:35:00,
2013-10-12 17:40:00,63.5,47.5,30.31,SSE,160,9.2,20.7,56,0.00,FEW,,0.00,WeatherDisplay:10.37,2013-10-12 21:40:00,
2013-10-12 17:45:00,63.1,47.2,30.31,SSE,160,9.2,20.7,56,0.00,FEW,,0.00,WeatherDisplay:10.37,2013-10-12 21:45:00,
2013-10-12 17:50:00,63.0,47.0,30.31,SSE,160,9.2,20.7,56,0.00,FEW,,0.00,WeatherDisplay:10.37,2013-10-12 21:50:00,
2013-10-12 17:55:00,62.8,46.8,30.31,SSE,160,9.2,20.7,56,0.00,FEW,,0.00,WeatherDisplay:10.37,2013-10-12 21:55:00,
2013-10-12 18:00:00,62.6,49.4,30.31,South,170,13.8,20.7,62,0.00,SCT,,0.00,WeatherDisplay:10.37,2013-10-12 22:00:00,
2013-10-12 18:05:00,62.4,49.2,30.31,South,170,13.8,20.7,62,0.00,SCT,,0.00,WeatherDisplay:10.37,2013-10-12 22:05:00,
2013-10-12 18:10:00,62.2,49.1,30.31,South,170,13.8,20.7,62,0.00,SCT,,0.00,WeatherDisplay:10.37,2013-10-12 22:10:00,
2013-10-12 18:15:00,62.2,49.1,30.31,South,170,13.8,20.7,62,0.00,SCT,,0.00,WeatherDisplay:10.37,2013-10-12 22:15:00,
2013-10-12 18:20:00,62.1,48.9,30.31,South,170,13.8,20.7,62,0.00,SCT,,0.00,WeatherDisplay:10.37,2013-10-12 22:20:00,
2013-10-12 18:25:00,62.1,48.9,30.31,South,170,13.8,20.7,62,0.00,SCT,,0.00,WeatherDisplay:10.37,2013-10-12 22:25:00,
2013-10-12 18:30:00,62.1,48.9,30.31,South,170,13.8,20.7,62,0.00,SCT,,0.00,WeatherDisplay:10.37,2013-10-12 22:30:00,
2013-10-12 18:35:00,62.1,48.9,30.31,South,170,13.8,20.7,62,0.00,SCT,,0.00,WeatherDisplay:10.37,2013-10-12 22:35:00,
2013-10-12 18:40:00,62.1,48.9,30.31,South,170,13.8,20.7,62,0.00,SCT,,0.00,WeatherDisplay:10.37,2013-10-12 22:40:00,
2013-10-12 18:45:00,62.1,48.9,30.31,South,170,13.8,20.7,62,0.00,SCT,,0.00,WeatherDisplay:10.37,2013-10-12 22:45:00,
2013-10-12 18:50:00,62.1,48.9,30.31,South,170,13.8,20.7,62,0.00,SCT,,0.00,WeatherDisplay:10.37,2013-10-12 22:50:00,
2013-10-12 18:55:00,61.9,48.7,30.31,South,170,13.8,20.7,62,0.00,SCT,,0.00,WeatherDisplay:10.37,2013-10-12 22:55:00,
2013-10-12 19:00:00,61.9,48.7,30.33,South,170,13.8,20.7,62,0.00,SCT,,0.00,WeatherDisplay:10.37,2013-10-12 23:00:00,
2013-10-12 19:05:00,61.9,48.7,30.33,South,170,13.8,20.7,62,0.00,SCT,,0.00,WeatherDisplay:10.37,2013-10-12 23:05:00,
2013-10-12 19:10:00,61.9,48.7,30.33,South,170,13.8,20.7,62,0.00,SCT,,0.00,WeatherDisplay:10.37,2013-10-12 23:10:00,
2013-10-12 19:15:00,61.9,50.4,30.33,SSE,160,9.2,20.7,66,0.00,SCT,,0.00,WeatherDisplay:10.37,2013-10-12 23:15:00,
2013-10-12 19:20:00,61.9,50.4,30.33,SSE,160,9.2,9.2,66,0.00,SCT,,0.00,WeatherDisplay:10.37,2013-10-12 23:20:00,
2013-10-12 19:25:00,61.7,50.2,30.33,SSE,160,9.2,9.2,66,0.00,SCT,,0.00,WeatherDisplay:10.37,2013-10-12 23:25:00,
2013-10-12 19:30:00,61.7,50.2,30.33,SSE,160,9.2,9.2,66,0.00,SCT,,0.00,WeatherDisplay:10.37,2013-10-12 23:30:00,
2013-10-12 19:35:00,61.7,50.2,30.33,SSE,160,9.2,9.2,66,0.00,SCT,,0.00,WeatherDisplay:10.37,2013-10-12 23:35:00,
2013-10-12 19:40:00,61.7,50.2,30.33,SSE,160,9.2,9.2,66,0.00,SCT,,0.00,WeatherDisplay:10.37,2013-10-12 23:40:00,
2013-10-12 19:45:00,61.5,50.1,30.33,SSE,160,9.2,9.2,66,0.00,SCT,,0.00,WeatherDisplay:10.37,2013-10-12 23:45:00,
2013-10-12 19:50:00,61.5,50.1,30.33,SSE,160,9.2,9.2,66,0.00,SCT,,0.00,WeatherDisplay:10.37,2013-10-12 23:50:00,
2013-10-12 19:56:00,61.5,50.1,30.33,SSE,160,9.2,9.2,66,0.00,SCT,,0.00,WeatherDisplay:10.37,2013-10-12 23:56:00,
2013-10-12 20:01:00,61.5,50.1,30.33,SE,140,5.8,9.2,66,0.00,SCT,,0.00,WeatherDisplay:10.37,2013-10-13 00:01:00,
2013-10-12 20:06:00,61.3,49.9,30.33,SE,140,5.8,5.8,66,0.00,SCT,,0.00,WeatherDisplay:10.37,2013-10-13 00:06:00,
2013-10-12 20:11:00,61.3,49.9,30.33,SE,140,5.8,5.8,66,0.00,SCT,,0.00,WeatherDisplay:10.37,2013-10-13 00:11:00,
2013-10-12 20:16:00,61.3,49.9,30.33,SE,140,5.8,5.8,66,0.00,SCT,,0.00,WeatherDisplay:10.37,2013-10-13 00:16:00,
2013-10-12 20:21:00,61.3,49.9,30.33,SE,140,5.8,5.8,66,0.00,SCT,,0.00,WeatherDisplay:10.37,2013-10-13 00:21:00,
2013-10-12 20:26:00,61.3,49.9,30.33,SE,140,5.8,5.8,66,0.00,SCT,,0.00,WeatherDisplay:10.37,2013-10-13 00:26:00,
2013-10-12 20:31:00,61.3,49.9,30.33,SE,140,5.8,5.8,66,0.00,SCT,,0.00,WeatherDisplay:10.37,2013-10-13 00:31:00,
2013-10-12 20:36:00,61.2,49.7,30.33,SE,140,5.8,5.8,66,0.00,SCT,,0.00,WeatherDisplay:10.37,2013-10-13 00:36:00,
2013-10-12 20:41:00,61.2,49.7,30.33,SE,140,5.8,5.8,66,0.00,SCT,,0.00,WeatherDisplay:10.37,2013-10-13 00:41:00,
2013-10-12 20:46:00,61.2,49.7,30.33,SE,140,5.8,5.8,66,0.00,SCT,,0.00,WeatherDisplay:10.37,2013-10-13 00:46:00,
2013-10-12 20:51:00,61.2,49.7,30.33,SE,140,5.8,5.8,66,0.00,SCT,,0.00,WeatherDisplay:10.37,2013-10-13 00:51:00,
2013-10-12 20:56:00,61.0,49.5,30.33,SE,140,5.8,5.8,66,0.00,SCT,,0.00,WeatherDisplay:10.37,2013-10-13 00:56:00,
2013-10-12 21:01:00,61.0,49.5,30.33,ESE,120,3.5,5.8,66,0.00,BKN,,0.00,WeatherDisplay:10.37,2013-10-13 01:01:00,
2013-10-12 21:06:00,60.8,49.4,30.33,ESE,120,3.5,3.5,66,0.00,BKN,,0.00,WeatherDisplay:10.37,2013-10-13 01:06:00,
2013-10-12 21:11:00,60.8,49.4,30.33,ESE,120,3.5,3.5,66,0.00,BKN,,0.00,WeatherDisplay:10.37,2013-10-13 01:11:00,
2013-10-12 21:16:00,60.8,49.4,30.33,ESE,120,3.5,3.5,66,0.00,BKN,,0.00,WeatherDisplay:10.37,2013-10-13 01:16:00,
2013-10-12 21:21:00,60.6,49.2,30.33,ESE,120,3.5,3.5,66,0.00,BKN,,0.00,WeatherDisplay:10.37,2013-10-13 01:21:00,
2013-10-12 21:26:00,60.6,49.2,30.33,ESE,120,3.5,3.5,66,0.00,BKN,,0.00,WeatherDisplay:10.37,2013-10-13 01:26:00,
2013-10-12 21:31:00,60.4,49.0,30.33,ESE,120,3.5,3.5,66,0.00,BKN,,0.00,WeatherDisplay:10.37,2013-10-13 01:31:00,
2013-10-12 21:36:00,60.4,49.0,30.33,ESE,120,3.5,3.5,66,0.00,BKN,,0.00,WeatherDisplay:10.37,2013-10-13 01:36:00,
2013-10-12 21:41:00,60.4,49.0,30.33,ESE,120,3.5,3.5,66,0.00,BKN,,0.00,WeatherDisplay:10.37,2013-10-13 01:41:00,
2013-10-12 21:46:00,60.3,48.9,30.33,ESE,120,3.5,3.5,66,0.00,BKN,,0.00,WeatherDisplay:10.37,2013-10-13 01:46:00,
2013-10-12 21:51:00,60.3,48.9,30.33,ESE,120,3.5,3.5,66,0.00,BKN,,0.00,WeatherDisplay:10.37,2013-10-13 01:51:00,
2013-10-12 21:56:00,60.1,48.7,30.33,ESE,120,3.5,3.5,66,0.00,BKN,,0.00,WeatherDisplay:10.37,2013-10-13 01:56:00,
2013-10-12 21:57:00,60.1,48.7,30.33,ESE,120,3.5,3.5,66,0.00,BKN,,0.00,WeatherDisplay:10.37,2013-10-13 01:57:00,
2013-10-12 22:02:00,60.1,48.7,30.33,ESE,120,3.5,3.5,66,0.00,BKN,,0.00,WeatherDisplay:10.37,2013-10-13 02:02:00,
2013-10-12 22:07:00,60.1,48.7,30.33,ESE,120,3.5,3.5,66,0.00,BKN,,0.00,WeatherDisplay:10.37,2013-10-13 02:07:00,
2013-10-12 22:12:00,60.1,48.7,30.33,ESE,120,3.5,3.5,66,0.00,BKN,,0.00,WeatherDisplay:10.37,2013-10-13 02:12:00,
2013-10-12 22:17:00,60.1,49.9,30.33,SE,140,3.5,3.5,69,0.00,BKN,,0.00,WeatherDisplay:10.37,2013-10-13 02:17:00,
2013-10-12 22:22:00,60.1,49.9,30.33,SE,140,3.5,3.5,69,0.00,BKN,,0.00,WeatherDisplay:10.37,2013-10-13 02:22:00,
2013-10-12 22:27:00,60.1,49.9,30.33,SE,140,3.5,3.5,69,0.00,BKN,,0.00,WeatherDisplay:10.37,2013-10-13 02:27:00,
2013-10-12 22:32:00,59.9,49.7,30.36,SE,140,3.5,3.5,69,0.00,BKN,,0.00,WeatherDisplay:10.37,2013-10-13 02:32:00,
2013-10-12 22:37:00,59.9,49.7,30.36,SE,140,3.5,3.5,69,0.00,BKN,,0.00,WeatherDisplay:10.37,2013-10-13 02:37:00,
2013-10-12 22:42:00,59.9,49.7,30.36,SE,140,3.5,3.5,69,0.00,BKN,,0.00,WeatherDisplay:10.37,2013-10-13 02:42:00,
2013-10-12 22:47:00,59.9,49.7,30.36,SE,140,3.5,3.5,69,0.00,BKN,,0.00,WeatherDisplay:10.37,2013-10-13 02:47:00,
2013-10-12 22:52:00,59.9,49.7,30.36,SE,140,3.5,3.5,69,0.00,BKN,,0.00,WeatherDisplay:10.37,2013-10-13 02:52:00,
2013-10-12 22:57:00,59.9,49.7,30.36,SE,140,3.5,3.5,69,0.00,BKN,,0.00,WeatherDisplay:10.37,2013-10-13 02:57:00,
2013-10-12 23:02:00,59.9,51.6,30.36,SE,140,3.5,3.5,74,0.00,FEW,,0.00,WeatherDisplay:10.37,2013-10-13 03:02:00,
2013-10-12 23:07:00,59.9,51.6,30.36,SE,140,3.5,3.5,74,0.00,FEW,,0.00,WeatherDisplay:10.37,2013-10-13 03:07:00,
2013-10-12 23:12:00,59.9,51.6,30.36,SE,140,3.5,3.5,74,0.00,FEW,,0.00,WeatherDisplay:10.37,2013-10-13 03:12:00,
2013-10-12 23:17:00,59.7,51.4,30.36,SE,140,3.5,3.5,74,0.00,FEW,,0.00,WeatherDisplay:10.37,2013-10-13 03:17:00,
2013-10-12 23:22:00,59.7,51.4,30.36,SE,140,3.5,3.5,74,0.00,FEW,,0.00,WeatherDisplay:10.37,2013-10-13 03:22:00,
2013-10-12 23:27:00,59.7,51.4,30.36,SE,140,3.5,3.5,74,0.00,FEW,,0.00,WeatherDisplay:10.37,2013-10-13 03:27:00,
2013-10-12 23:32:00,59.7,51.4,30.36,SE,140,3.5,3.5,74,0.00,FEW,,0.00,WeatherDisplay:10.37,2013-10-13 03:32:00,
2013-10-12 23:37:00,59.7,51.4,30.36,SE,140,3.5,3.5,74,0.00,FEW,,0.00,WeatherDisplay:10.37,2013-10-13 03:37:00,
2013-10-12 23:42:00,59.5,51.2,30.36,SE,140,3.5,3.5,74,0.00,FEW,,0.00,WeatherDisplay:10.37,2013-10-13 03:42:00,
2013-10-12 23:47:00,59.5,51.2,30.36,SE,140,3.5,3.5,74,0.00,FEW,,0.00,WeatherDisplay:10.37,2013-10-13 03:47:00,
2013-10-12 23:52:00,59.5,51.2,30.36,SE,140,3.5,3.5,74,0.00,FEW,,0.00,WeatherDisplay:10.37,2013-10-13 03:52:00,
2013-10-12 23:57:00,59.5,51.2,30.36,SE,140,3.5,3.5,74,0.00,FEW,,0.00,WeatherDisplay:10.37,2013-10-13 03:57:00,